createdAt,value
2018-03-22T00:01:44.866Z,86.46
2018-03-22T00:04:13.134Z,84.67
2018-03-22T00:06:43.420Z,85.53
2018-03-22T00:09:11.686Z,88.04
2018-03-22T00:11:39.957Z,87.41
2018-03-22T00:14:08.233Z,86.74
2018-03-22T00:16:36.497Z,88.29
2018-03-22T00:19:04.763Z,87.62
2018-03-22T00:21:33.797Z,88.66
2018-03-22T00:24:02.053Z,88.53
2018-03-22T00:26:30.325Z,85.84
2018-03-22T00:28:59.365Z,85.79
2018-03-22T00:31:27.627Z,87.37
2018-03-22T00:33:55.893Z,87.78
2018-03-22T00:36:24.173Z,87.97
2018-03-22T00:38:52.580Z,88.57
2018-03-22T00:41:20.833Z,87.65
2018-03-22T00:43:49.892Z,87.65
2018-03-22T00:46:18.160Z,87.55
2018-03-22T00:48:46.420Z,87.51
2018-03-22T00:51:14.949Z,87.58
2018-03-22T00:53:43.247Z,86.63
2018-03-22T00:56:11.469Z,84.95
2018-03-22T00:58:39.732Z,85.26
2018-03-22T01:01:07.988Z,86.19
2018-03-22T01:03:37.028Z,86.59
2018-03-22T01:06:05.297Z,87.60
2018-03-22T01:08:33.694Z,88.19
2018-03-22T01:11:01.958Z,87.88
2018-03-22T01:13:30.224Z,88.55
2018-03-22T01:15:58.479Z,88.57
2018-03-22T01:18:27.211Z,88.46
2018-03-22T01:20:55.472Z,88.41
2018-03-22T01:23:24.517Z,87.98
2018-03-22T01:25:52.785Z,87.75
2018-03-22T01:28:21.061Z,87.97
2018-03-22T01:30:49.312Z,88.08
2018-03-22T01:33:18.353Z,87.71
2018-03-22T01:35:46.620Z,88.02
2018-03-22T01:38:14.881Z,88.31
2018-03-22T01:40:43.153Z,87.25
2018-03-22T01:43:12.183Z,88.02
2018-03-22T01:45:40.442Z,87.60
2018-03-22T01:48:08.705Z,87.84
2018-03-22T01:50:38.994Z,86.94
2018-03-22T01:53:13.838Z,87.98
2018-03-22T01:55:42.103Z,87.45
2018-03-22T01:58:10.380Z,86.56
2018-03-22T02:00:38.635Z,85.35
2018-03-22T02:03:06.897Z,83.47
2018-03-22T02:05:35.173Z,85.95
2018-03-22T02:08:04.197Z,85.84
2018-03-22T02:10:32.936Z,85.50
2018-03-22T02:13:01.193Z,85.74
2018-03-22T02:15:29.448Z,87.16
2018-03-22T02:17:57.728Z,87.81
2018-03-22T02:20:25.998Z,88.01
2018-03-22T02:22:54.264Z,87.05
2018-03-22T02:25:22.520Z,86.70
2018-03-22T02:27:50.800Z,84.98
2018-03-22T02:30:19.069Z,84.06
2018-03-22T02:32:47.324Z,86.87
2018-03-22T02:35:15.592Z,86.61
2018-03-22T02:37:43.868Z,85.99
2018-03-22T02:40:13.037Z,86.96
2018-03-22T02:42:42.084Z,86.59
2018-03-22T02:45:10.338Z,86.58
2018-03-22T02:47:38.599Z,86.80
2018-03-22T02:50:07.624Z,86.42
2018-03-22T02:52:35.909Z,85.81
2018-03-22T02:55:04.188Z,86.07
2018-03-22T02:57:32.459Z,86.22
2018-03-22T03:00:00.725Z,85.77
2018-03-22T03:02:30.552Z,85.39
2018-03-22T03:04:58.830Z,84.10
2018-03-22T03:07:27.846Z,84.79
2018-03-22T03:09:56.112Z,84.82
2018-03-22T03:12:24.383Z,86.01
2018-03-22T03:14:53.401Z,85.80
2018-03-22T03:17:21.676Z,85.81
2018-03-22T03:19:49.958Z,85.58
2018-03-22T03:22:18.228Z,86.22
2018-03-22T03:24:46.490Z,86.45
2018-03-22T03:27:15.508Z,86.38
2018-03-22T03:29:43.788Z,85.83
2018-03-22T03:32:12.067Z,85.64
2018-03-22T03:34:41.076Z,85.93
2018-03-22T03:37:09.353Z,85.90
2018-03-22T03:39:37.621Z,86.54
2018-03-22T03:42:06.616Z,85.83
2018-03-22T03:44:34.885Z,85.45
2018-03-22T03:47:03.905Z,85.16
2018-03-22T03:49:32.176Z,85.58
2018-03-22T03:52:01.202Z,84.73
2018-03-22T03:54:29.472Z,84.02
2018-03-22T03:56:57.721Z,83.82
2018-03-22T03:59:26.758Z,84.19
2018-03-22T04:01:55.010Z,84.58
2018-03-22T04:04:24.039Z,85.70
2018-03-22T04:06:52.308Z,85.68
2018-03-22T04:09:21.260Z,85.90
2018-03-22T04:11:49.516Z,85.84
2018-03-22T04:14:17.782Z,86.20
2018-03-22T04:16:46.040Z,86.17
2018-03-22T04:19:14.309Z,86.21
2018-03-22T04:21:42.590Z,86.12
2018-03-22T04:24:10.844Z,86.06
2018-03-22T04:26:39.104Z,84.85
2018-03-22T04:29:07.353Z,83.02
2018-03-22T04:31:35.617Z,83.59
2018-03-22T04:34:03.873Z,83.35
2018-03-22T04:36:32.272Z,84.06
2018-03-22T04:39:01.305Z,81.52
2018-03-22T04:41:29.561Z,84.26
2018-03-22T04:43:57.832Z,84.89
2018-03-22T04:46:26.092Z,84.10
2018-03-22T04:48:54.372Z,84.61
2018-03-22T04:51:22.640Z,85.05
2018-03-22T04:53:50.912Z,84.21
2018-03-22T04:56:19.176Z,83.99
2018-03-22T04:58:47.449Z,83.92
2018-03-22T05:01:15.702Z,83.36
2018-03-22T05:03:43.992Z,84.52
2018-03-22T05:06:12.246Z,84.45
2018-03-22T05:08:41.288Z,84.44
2018-03-22T05:11:10.830Z,84.95
2018-03-22T05:13:39.092Z,85.28
2018-03-22T05:16:07.440Z,84.64
2018-03-22T05:18:35.750Z,84.01
2018-03-22T05:21:04.009Z,83.60
2018-03-22T05:23:32.287Z,82.52
2018-03-22T05:26:00.567Z,82.48
2018-03-22T05:28:28.828Z,81.90
2018-03-22T05:30:57.086Z,82.11
2018-03-22T05:33:25.364Z,82.19
2018-03-22T05:35:53.603Z,80.86
2018-03-22T05:38:21.865Z,81.32
2018-03-22T05:40:50.140Z,81.85
2018-03-22T05:43:18.402Z,82.29
2018-03-22T05:45:47.431Z,81.80
2018-03-22T05:48:15.691Z,81.62
2018-03-22T05:50:43.975Z,81.63
2018-03-22T05:53:12.228Z,81.16
2018-03-22T05:55:40.484Z,81.46
2018-03-22T05:58:08.757Z,80.98
2018-03-22T06:00:37.031Z,80.04
2018-03-22T06:03:05.294Z,79.24
2018-03-22T06:05:33.561Z,77.71
2018-03-22T06:08:01.828Z,76.53
2018-03-22T06:10:30.857Z,75.55
2018-03-22T06:12:59.125Z,61.95
2018-03-22T06:15:27.391Z,45.51
2018-03-22T06:17:55.656Z,37.11
2018-03-22T06:20:24.682Z,33.62
2018-03-22T06:22:52.944Z,34.58
2018-03-22T06:25:21.976Z,29.93
2018-03-22T06:27:50.232Z,28.04
2018-03-22T06:30:18.484Z,27.18
2018-03-22T06:32:46.867Z,28.30
2018-03-22T06:35:15.061Z,29.49
2018-03-22T06:37:44.077Z,29.68
2018-03-22T06:40:12.338Z,27.76
2018-03-22T06:42:41.351Z,25.27
2018-03-22T06:45:09.605Z,22.87
2018-03-22T06:47:38.633Z,21.24
2018-03-22T06:50:06.886Z,19.85
2018-03-22T06:52:35.529Z,22.19
2018-03-22T06:55:03.788Z,22.31
2018-03-22T06:57:32.034Z,23.16
2018-03-22T07:00:01.064Z,21.85
2018-03-22T07:02:29.309Z,20.62
2018-03-22T07:04:58.165Z,19.68
2018-03-22T07:07:26.431Z,20.43
2018-03-22T07:09:54.681Z,18.52
2018-03-22T07:12:23.692Z,19.63
2018-03-22T07:14:51.943Z,17.39
2018-03-22T07:17:20.190Z,18.34
2018-03-22T07:19:48.458Z,19.21
2018-03-22T07:22:16.700Z,19.07
2018-03-22T07:24:45.714Z,18.55
2018-03-22T07:27:13.966Z,17.73
2018-03-22T07:29:42.993Z,18.83
2018-03-22T07:32:11.249Z,18.88
2018-03-22T07:34:40.260Z,19.84
2018-03-22T07:37:08.518Z,19.74
2018-03-22T07:39:37.573Z,20.11
2018-03-22T07:42:05.816Z,19.06
2018-03-22T07:44:39.596Z,19.32
2018-03-22T07:47:07.839Z,23.22
2018-03-22T07:49:36.089Z,21.75
2018-03-22T07:52:04.352Z,22.64
2018-03-22T07:54:33.365Z,21.88
2018-03-22T07:57:01.637Z,21.97
2018-03-22T07:59:29.880Z,22.03
2018-03-22T08:01:58.128Z,22.33
2018-03-22T08:04:26.386Z,21.26
2018-03-22T08:06:54.734Z,21.78
2018-03-22T08:09:22.992Z,24.03
2018-03-22T08:11:51.236Z,22.74
2018-03-22T08:14:19.489Z,21.86
2018-03-22T08:16:48.511Z,21.27
2018-03-22T08:19:16.771Z,21.50
2018-03-22T08:21:45.814Z,21.50
2018-03-22T08:24:14.056Z,19.08
2018-03-22T08:26:42.310Z,19.41
2018-03-22T08:29:11.665Z,19.33
2018-03-22T08:31:39.917Z,17.59
2018-03-22T08:34:08.185Z,16.74
2018-03-22T08:36:38.447Z,15.68
2018-03-22T08:39:06.700Z,14.80
2018-03-22T08:41:35.712Z,14.98
2018-03-22T08:44:03.984Z,16.92
2018-03-22T08:46:32.232Z,19.33
2018-03-22T08:49:00.501Z,19.14
2018-03-22T08:51:28.753Z,20.13
2018-03-22T08:53:56.990Z,18.78
2018-03-22T08:56:26.014Z,20.20
2018-03-22T08:58:54.257Z,20.70
2018-03-22T09:01:23.272Z,21.77
2018-03-22T09:03:52.307Z,23.45
2018-03-22T09:06:20.648Z,24.70
2018-03-22T09:08:49.753Z,22.35
2018-03-22T09:11:18.768Z,23.25
2018-03-22T09:13:47.060Z,24.41
2018-03-22T09:16:15.322Z,23.32
2018-03-22T09:18:43.592Z,24.49
2018-03-22T09:21:12.613Z,21.94
2018-03-22T09:23:40.852Z,19.55
2018-03-22T09:26:09.859Z,20.06
2018-03-22T09:28:40.124Z,19.75
2018-03-22T09:31:08.366Z,20.47
2018-03-22T09:33:37.383Z,19.89
2018-03-22T09:36:05.652Z,19.79
2018-03-22T09:38:34.717Z,20.93
2018-03-22T09:41:02.921Z,20.68
2018-03-22T09:43:31.939Z,21.71
2018-03-22T09:46:00.187Z,20.48
2018-03-22T09:48:29.210Z,19.46
2018-03-22T09:50:57.449Z,19.67
2018-03-22T09:53:25.702Z,19.06
2018-03-22T09:55:54.728Z,18.10
2018-03-22T09:58:22.985Z,19.00
2018-03-22T10:00:51.237Z,17.37
2018-03-22T10:03:19.487Z,19.99
2018-03-22T10:05:48.712Z,18.55
2018-03-22T10:08:17.000Z,15.91
2018-03-22T10:10:45.275Z,14.94
2018-03-22T10:13:13.512Z,16.22
2018-03-22T10:15:41.767Z,15.09
2018-03-22T10:18:10.020Z,17.86
2018-03-22T10:20:38.261Z,17.30
2018-03-22T10:23:07.285Z,18.07
2018-03-22T10:25:35.529Z,19.36
2018-03-22T10:28:03.796Z,17.09
2018-03-22T10:30:32.057Z,15.72
2018-03-22T10:33:00.312Z,15.75
2018-03-22T10:35:28.556Z,16.68
2018-03-22T10:37:57.581Z,17.46
2018-03-22T10:40:25.828Z,16.04
2018-03-22T10:42:54.086Z,17.41
2018-03-22T10:45:22.333Z,18.30
2018-03-22T10:47:51.412Z,17.73
2018-03-22T10:50:20.440Z,16.83
2018-03-22T10:52:48.688Z,18.84
2018-03-22T10:55:17.716Z,19.57
2018-03-22T10:57:45.981Z,17.08
2018-03-22T11:00:19.649Z,19.43
2018-03-22T11:02:53.672Z,15.96
2018-03-22T11:05:22.706Z,18.18
2018-03-22T11:07:50.952Z,21.01
2018-03-22T11:10:19.968Z,20.16
2018-03-22T11:12:48.232Z,17.36
2018-03-22T11:15:17.244Z,15.81
2018-03-22T11:17:45.517Z,18.22
2018-03-22T11:20:14.526Z,19.06
2018-03-22T11:22:42.772Z,16.13
2018-03-22T11:25:11.696Z,15.71
2018-03-22T11:27:39.937Z,15.58
2018-03-22T11:30:08.200Z,17.61
2018-03-22T11:32:36.463Z,18.93
2018-03-22T11:35:04.716Z,20.24
2018-03-22T11:37:33.748Z,23.47
2018-03-22T11:40:02.009Z,21.26
2018-03-22T11:42:30.254Z,21.57
2018-03-22T11:44:59.277Z,22.59
2018-03-22T11:47:27.520Z,21.41
2018-03-22T11:49:55.790Z,22.75
2018-03-22T11:52:24.085Z,21.74
2018-03-22T11:54:52.324Z,19.93
2018-03-22T11:57:20.593Z,19.14
2018-03-22T11:59:48.841Z,19.19
2018-03-22T12:02:17.840Z,20.75
2018-03-22T12:04:46.866Z,19.12
2018-03-22T12:07:15.143Z,18.49
2018-03-22T12:09:43.382Z,17.96
2018-03-22T12:12:11.633Z,19.53
2018-03-22T12:14:39.881Z,20.75
2018-03-22T12:17:08.704Z,18.22
2018-03-22T12:19:36.943Z,22.28
2018-03-22T12:22:05.206Z,21.97
2018-03-22T12:24:34.256Z,22.67
2018-03-22T12:27:03.237Z,20.19
2018-03-22T12:29:31.489Z,19.04
2018-03-22T12:31:59.763Z,18.60
2018-03-22T12:34:28.786Z,19.31
2018-03-22T12:36:57.028Z,22.31
2018-03-22T12:39:26.051Z,24.10
2018-03-22T12:41:55.056Z,26.81
2018-03-22T12:44:23.316Z,26.99
2018-03-22T12:46:52.338Z,23.00
2018-03-22T12:49:20.580Z,22.47
2018-03-22T12:51:48.852Z,26.72
2018-03-22T12:54:17.097Z,25.50
2018-03-22T12:56:45.352Z,27.00
2018-03-22T12:59:13.620Z,25.30
2018-03-22T13:01:41.872Z,26.75
2018-03-22T13:04:10.128Z,29.06
2018-03-22T13:06:38.378Z,27.94
2018-03-22T13:09:06.640Z,29.78
2018-03-22T13:11:35.680Z,27.35
2018-03-22T13:14:03.977Z,31.24
2018-03-22T13:16:32.191Z,27.64
2018-03-22T13:19:01.513Z,24.67
2018-03-22T13:21:29.772Z,27.26
2018-03-22T13:23:58.794Z,28.71
2018-03-22T13:26:27.032Z,28.10
2018-03-22T13:28:55.288Z,28.63
2018-03-22T13:31:23.538Z,31.80
2018-03-22T13:33:51.768Z,26.39
2018-03-22T13:36:20.023Z,28.50
2018-03-22T13:38:48.262Z,27.61
2018-03-22T13:41:17.276Z,28.27
2018-03-22T13:43:45.534Z,30.71
2018-03-22T13:46:14.549Z,30.29
2018-03-22T13:48:42.816Z,30.80
2018-03-22T13:51:11.098Z,30.76
2018-03-22T13:53:40.100Z,28.56
2018-03-22T13:56:08.348Z,29.15
2018-03-22T13:58:36.585Z,26.09
2018-03-22T14:01:04.853Z,25.09
2018-03-22T14:03:33.084Z,26.54
2018-03-22T14:06:01.324Z,28.01
2018-03-22T14:08:29.583Z,23.71
2018-03-22T14:10:57.840Z,28.21
2018-03-22T14:13:26.848Z,27.92
2018-03-22T14:15:55.864Z,28.65
2018-03-22T14:18:24.113Z,25.07
2018-03-22T14:20:53.128Z,24.43
2018-03-22T14:23:21.375Z,26.66
2018-03-22T14:25:49.628Z,26.97
2018-03-22T14:28:17.884Z,26.65
2018-03-22T14:30:47.365Z,28.75
2018-03-22T14:33:17.620Z,28.89
2018-03-22T14:35:45.863Z,30.18
2018-03-22T14:38:14.872Z,30.36
2018-03-22T14:40:43.897Z,31.04
2018-03-22T14:43:12.875Z,30.89
2018-03-22T14:45:41.144Z,32.26
2018-03-22T14:48:10.168Z,32.48
2018-03-22T14:50:38.418Z,31.89
2018-03-22T14:53:07.428Z,30.12
2018-03-22T14:55:36.545Z,28.61
2018-03-22T14:58:04.792Z,29.10
2018-03-22T15:00:33.854Z,30.27
2018-03-22T15:03:02.075Z,29.91
2018-03-22T15:05:31.077Z,29.41
2018-03-22T15:08:00.089Z,30.01
2018-03-22T15:10:28.370Z,32.16
2018-03-22T15:12:56.608Z,30.54
2018-03-22T15:15:26.564Z,29.73
2018-03-22T15:17:54.816Z,29.74
2018-03-22T15:20:23.828Z,30.09
2018-03-22T15:22:52.849Z,31.23
2018-03-22T15:25:21.094Z,31.47
2018-03-22T15:27:49.332Z,31.10
2018-03-22T15:30:17.582Z,30.10
2018-03-22T15:32:45.831Z,31.15
2018-03-22T15:35:14.861Z,30.54
2018-03-22T15:37:43.104Z,31.46
2018-03-22T15:40:11.368Z,30.25
2018-03-22T15:42:39.610Z,30.27
2018-03-22T15:45:07.849Z,32.19
2018-03-22T15:47:36.117Z,32.31
2018-03-22T15:50:04.336Z,33.44
2018-03-22T15:52:32.580Z,33.96
2018-03-22T15:55:00.863Z,34.42
2018-03-22T15:57:29.105Z,35.02
2018-03-22T15:59:57.345Z,35.48
2018-03-22T16:02:26.372Z,36.18
2018-03-22T16:04:54.622Z,37.45
2018-03-22T16:07:24.860Z,36.82
2018-03-22T16:09:53.118Z,38.86
2018-03-22T16:12:22.128Z,39.33
2018-03-22T16:14:51.162Z,38.86
2018-03-22T16:17:19.409Z,39.27
2018-03-22T16:19:47.672Z,40.34
2018-03-22T16:22:16.691Z,40.82
2018-03-22T16:24:44.960Z,41.19
2018-03-22T16:27:13.970Z,41.86
2018-03-22T16:29:42.233Z,40.42
2018-03-22T16:32:11.257Z,41.42
2018-03-22T16:34:39.511Z,40.72
2018-03-22T16:37:08.520Z,39.73
2018-03-22T16:39:36.790Z,42.45
2018-03-22T16:42:05.792Z,42.22
2018-03-22T16:44:34.805Z,42.35
2018-03-22T16:47:03.067Z,42.77
2018-03-22T16:49:32.131Z,42.71
2018-03-22T16:52:00.333Z,46.29
2018-03-22T16:54:28.614Z,47.99
2018-03-22T16:56:57.620Z,49.10
2018-03-22T16:59:26.628Z,49.46
2018-03-22T17:01:54.884Z,49.41
2018-03-22T17:04:23.133Z,50.60
2018-03-22T17:06:51.378Z,51.92
2018-03-22T17:09:19.648Z,52.25
2018-03-22T17:11:48.652Z,53.63
2018-03-22T17:14:16.905Z,54.87
2018-03-22T17:16:45.923Z,56.23
2018-03-22T17:19:14.177Z,56.42
2018-03-22T17:21:42.412Z,56.25
2018-03-22T17:24:10.672Z,56.11
2018-03-22T17:26:38.943Z,55.44
2018-03-22T17:29:07.955Z,54.14
2018-03-22T17:31:36.191Z,51.85
2018-03-22T17:34:04.460Z,52.83
2018-03-22T17:36:32.736Z,52.56
2018-03-22T17:39:00.973Z,50.29
2018-03-22T17:41:30.465Z,49.40
2018-03-22T17:43:59.468Z,49.37
2018-03-22T17:46:27.709Z,48.83
2018-03-22T17:48:55.962Z,48.49
2018-03-22T17:51:24.224Z,49.47
2018-03-22T17:53:53.222Z,49.48
2018-03-22T17:56:22.320Z,48.73
2018-03-22T17:58:50.581Z,51.48
2018-03-22T18:01:19.588Z,52.57
2018-03-22T18:03:47.850Z,51.08
2018-03-22T18:06:16.847Z,53.20
2018-03-22T18:08:45.866Z,52.12
2018-03-22T18:11:14.115Z,53.30
2018-03-22T18:13:42.360Z,54.48
2018-03-22T18:16:10.606Z,52.79
2018-03-22T18:18:38.860Z,53.77
2018-03-22T18:21:07.883Z,54.91
2018-03-22T18:23:36.136Z,55.61
2018-03-22T18:26:05.168Z,56.03
2018-03-22T18:28:33.404Z,55.93
2018-03-22T18:31:01.651Z,57.19
2018-03-22T18:33:29.908Z,57.63
2018-03-22T18:35:58.163Z,59.94
2018-03-22T18:38:27.164Z,61.06
2018-03-22T18:40:56.178Z,61.79
2018-03-22T18:43:24.424Z,62.22
2018-03-22T18:45:52.680Z,62.90
2018-03-22T18:48:20.936Z,58.13
2018-03-22T18:50:49.202Z,57.95
2018-03-22T18:53:17.434Z,59.24
2018-03-22T18:55:45.686Z,58.05
2018-03-22T18:58:13.932Z,58.60
2018-03-22T19:00:42.197Z,59.94
2018-03-22T19:03:11.206Z,60.57
2018-03-22T19:05:40.222Z,62.45
2018-03-22T19:08:08.468Z,63.07
2018-03-22T19:10:37.489Z,64.23
2018-03-22T19:13:05.736Z,65.33
2018-03-22T19:15:33.978Z,64.71
2018-03-22T19:18:02.217Z,64.87
2018-03-22T19:20:31.275Z,66.12
2018-03-22T19:22:59.509Z,66.34
2018-03-22T19:25:27.769Z,67.00
2018-03-22T19:27:56.793Z,67.46
2018-03-22T19:30:25.023Z,67.41
2018-03-22T19:32:53.268Z,67.14
2018-03-22T19:35:21.532Z,67.47
2018-03-22T19:37:49.769Z,68.24
2018-03-22T19:40:18.015Z,69.27
2018-03-22T19:42:46.291Z,70.98
2018-03-22T19:45:14.644Z,71.41
2018-03-22T19:47:42.888Z,69.50
2018-03-22T19:50:11.153Z,70.46
2018-03-22T19:52:39.425Z,71.60
2018-03-22T19:55:07.687Z,71.89
2018-03-22T19:57:35.960Z,72.93
2018-03-22T20:00:04.218Z,73.51
2018-03-22T20:02:33.243Z,73.08
2018-03-22T20:05:01.513Z,73.59
2018-03-22T20:07:29.762Z,74.87
2018-03-22T20:09:58.784Z,74.30
2018-03-22T20:12:27.035Z,75.42
2018-03-22T20:14:56.892Z,74.34
2018-03-22T20:17:25.141Z,74.59
2018-03-22T20:19:54.147Z,74.41
2018-03-22T20:22:22.407Z,75.09
2018-03-22T20:24:51.424Z,75.97
2018-03-22T20:27:20.467Z,76.70
2018-03-22T20:29:48.718Z,76.61
2018-03-22T20:32:16.963Z,77.01
2018-03-22T20:34:45.218Z,78.66
2018-03-22T20:37:13.530Z,78.84
2018-03-22T20:39:42.544Z,79.83
2018-03-22T20:42:10.796Z,79.56
2018-03-22T20:44:39.060Z,80.27
2018-03-22T20:47:07.326Z,80.47
2018-03-22T20:49:35.580Z,80.03
2018-03-22T20:52:03.842Z,80.05
2018-03-22T20:54:32.873Z,79.04
2018-03-22T20:57:01.133Z,78.51
2018-03-22T20:59:29.400Z,77.94
2018-03-22T21:01:58.428Z,77.55
2018-03-22T21:04:26.671Z,76.58
2018-03-22T21:06:55.706Z,77.06
2018-03-22T21:09:23.961Z,76.45
2018-03-22T21:11:52.989Z,76.90
2018-03-22T21:14:21.256Z,76.97
2018-03-22T21:16:49.500Z,76.98
2018-03-22T21:19:18.522Z,77.27
2018-03-22T21:21:46.802Z,76.48
2018-03-22T21:24:15.135Z,76.14
2018-03-22T21:26:43.369Z,76.81
2018-03-22T21:29:12.391Z,75.71
2018-03-22T21:31:40.631Z,75.21
2018-03-22T21:34:08.880Z,75.69
2018-03-22T21:36:37.136Z,76.12
2018-03-22T21:39:06.099Z,76.55
2018-03-22T21:41:35.120Z,76.23
2018-03-22T21:44:15.993Z,76.02
2018-03-22T21:46:44.240Z,75.76
2018-03-22T21:49:12.509Z,76.21
2018-03-22T21:51:41.507Z,76.95
2018-03-22T21:54:10.542Z,76.58
2018-03-22T21:56:38.809Z,76.04
2018-03-22T21:59:07.052Z,75.88
2018-03-22T22:01:36.079Z,75.56
2018-03-22T22:04:04.336Z,76.31
2018-03-22T22:06:33.345Z,76.79
2018-03-22T22:09:01.613Z,75.66
2018-03-22T22:11:30.618Z,75.75
2018-03-22T22:13:59.633Z,76.87
2018-03-22T22:16:27.888Z,76.33
2018-03-22T22:18:57.834Z,76.19
2018-03-22T22:21:26.095Z,76.36
2018-03-22T22:23:54.340Z,76.21
2018-03-22T22:26:22.580Z,76.59
2018-03-22T22:28:50.832Z,77.21
2018-03-22T22:31:19.845Z,77.33
2018-03-22T22:33:48.112Z,78.06
2018-03-22T22:36:17.120Z,78.16
2018-03-22T22:38:45.387Z,78.09
2018-03-22T22:41:14.409Z,79.51
2018-03-22T22:43:42.652Z,79.46
2018-03-22T22:46:11.687Z,79.68
2018-03-22T22:48:39.968Z,80.49
2018-03-22T22:51:08.827Z,80.20
2018-03-22T22:53:37.853Z,81.95
2018-03-22T22:56:06.088Z,82.72
2018-03-22T22:58:34.375Z,82.72
2018-03-22T23:01:02.596Z,82.76
2018-03-22T23:03:30.846Z,83.21
2018-03-22T23:05:59.869Z,83.95
2018-03-22T23:08:28.113Z,83.29
2018-03-22T23:10:56.371Z,83.34
2018-03-22T23:13:24.628Z,83.28
2018-03-22T23:15:52.911Z,84.09
2018-03-22T23:18:21.143Z,83.81
2018-03-22T23:20:50.176Z,84.86
2018-03-22T23:23:18.452Z,85.25
2018-03-22T23:25:46.717Z,84.82
2018-03-22T23:28:15.731Z,84.36
2018-03-22T23:30:43.996Z,84.40
2018-03-22T23:33:12.268Z,85.50
2018-03-22T23:35:41.293Z,85.31
2018-03-22T23:38:09.556Z,84.86
2018-03-22T23:40:37.832Z,84.39
2018-03-22T23:43:06.101Z,84.53
2018-03-22T23:45:34.364Z,83.79
2018-03-22T23:48:02.616Z,83.34
2018-03-22T23:50:30.871Z,82.69
2018-03-22T23:52:59.128Z,82.67
2018-03-22T23:55:28.152Z,83.37
2018-03-22T23:57:56.413Z,83.01
